sensor_id;sensor_type;location;lat;lon;timestamp;temperature;humidity
5578;DHT22;2811;51.900;10.734;2023-07-16T00:01:03;22.70;99.90
5578;DHT22;2811;51.900;10.734;2023-07-16T00:03:31;22.50;99.90
5578;DHT22;2811;51.900;10.734;2023-07-16T00:05:58;22.50;99.90
5578;DHT22;2811;51.900;10.734;2023-07-16T00:08:25;22.40;99.90
5578;DHT22;2811;51.900;10.734;2023-07-16T00:10:51;22.40;99.90
5578;DHT22;2811;51.900;10.734;2023-07-16T00:13:18;22.50;99.90
5578;DHT22;2811;51.900;10.734;2023-07-16T00:15:45;22.60;99.90
5578;DHT22;2811;51.900;10.734;2023-07-16T00:18:11;22.60;99.90
5578;DHT22;2811;51.900;10.734;2023-07-16T00:20:39;22.60;99.90
5578;DHT22;2811;51.900;10.734;2023-07-16T00:23:06;22.70;99.90
5578;DHT22;2811;51.900;10.734;2023-07-16T00:25:33;22.70;99.90
5578;DHT22;2811;51.900;10.734;2023-07-16T00:28:00;22.60;99.90
5578;DHT22;2811;51.900;10.734;2023-07-16T00:30:27;22.60;99.90
5578;DHT22;2811;51.900;10.734;2023-07-16T00:32:54;22.70;99.90
5578;DHT22;2811;51.900;10.734;2023-07-16T00:35:21;22.50;99.90
5578;DHT22;2811;51.900;10.734;2023-07-16T00:37:49;22.40;99.90
5578;DHT22;2811;51.900;10.734;2023-07-16T00:40:15;22.40;99.90
5578;DHT22;2811;51.900;10.734;2023-07-16T00:42:42;22.50;99.90
5578;DHT22;2811;51.900;10.734;2023-07-16T00:45:12;22.70;99.90
5578;DHT22;2811;51.900;10.734;2023-07-16T00:47:40;22.70;99.90
5578;DHT22;2811;51.900;10.734;2023-07-16T00:50:08;22.60;99.90
5578;DHT22;2811;51.900;10.734;2023-07-16T00:52:35;22.40;99.90
5578;DHT22;2811;51.900;10.734;2023-07-16T00:55:04;22.40;99.90
5578;DHT22;2811;51.900;10.734;2023-07-16T00:57:32;22.30;99.90
5578;DHT22;2811;51.900;10.734;2023-07-16T00:59:59;22.20;99.90
5578;DHT22;2811;51.900;10.734;2023-07-16T01:02:26;22.10;99.90
5578;DHT22;2811;51.900;10.734;2023-07-16T01:04:53;22.20;99.90
5578;DHT22;2811;51.900;10.734;2023-07-16T01:07:20;22.40;99.90
5578;DHT22;2811;51.900;10.734;2023-07-16T01:09:50;22.50;99.90
5578;DHT22;2811;51.900;10.734;2023-07-16T01:12:20;22.60;99.90
5578;DHT22;2811;51.900;10.734;2023-07-16T01:14:47;22.70;99.90
5578;DHT22;2811;51.900;10.734;2023-07-16T01:17:14;22.70;99.90
5578;DHT22;2811;51.900;10.734;2023-07-16T01:19:41;22.80;99.90
5578;DHT22;2811;51.900;10.734;2023-07-16T01:22:22;22.80;99.90
5578;DHT22;2811;51.900;10.734;2023-07-16T01:25:10;22.90;99.90
5578;DHT22;2811;51.900;10.734;2023-07-16T01:28:05;22.90;99.90
5578;DHT22;2811;51.900;10.734;2023-07-16T01:30:36;22.90;99.90
5578;DHT22;2811;51.900;10.734;2023-07-16T01:33:04;22.80;99.90
5578;DHT22;2811;51.900;10.734;2023-07-16T01:35:33;22.60;99.90
5578;DHT22;2811;51.900;10.734;2023-07-16T01:38:00;22.50;99.90
5578;DHT22;2811;51.900;10.734;2023-07-16T01:40:27;22.50;99.90
5578;DHT22;2811;51.900;10.734;2023-07-16T01:42:53;22.50;99.90
5578;DHT22;2811;51.900;10.734;2023-07-16T01:45:20;22.40;99.90
5578;DHT22;2811;51.900;10.734;2023-07-16T01:47:55;22.40;99.90
5578;DHT22;2811;51.900;10.734;2023-07-16T01:50:25;22.30;99.90
5578;DHT22;2811;51.900;10.734;2023-07-16T01:52:52;22.10;99.90
5578;DHT22;2811;51.900;10.734;2023-07-16T01:55:19;22.10;99.90
5578;DHT22;2811;51.900;10.734;2023-07-16T01:57:45;22.20;99.90
5578;DHT22;2811;51.900;10.734;2023-07-16T02:00:12;22.20;99.90
5578;DHT22;2811;51.900;10.734;2023-07-16T02:02:39;22.00;99.90
5578;DHT22;2811;51.900;10.734;2023-07-16T02:05:07;21.80;99.90
5578;DHT22;2811;51.900;10.734;2023-07-16T02:07:34;21.90;99.90
5578;DHT22;2811;51.900;10.734;2023-07-16T02:10:01;21.90;99.90
5578;DHT22;2811;51.900;10.734;2023-07-16T02:12:28;21.80;99.90
5578;DHT22;2811;51.900;10.734;2023-07-16T02:14:55;22.00;99.90
5578;DHT22;2811;51.900;10.734;2023-07-16T02:17:22;22.10;99.90
5578;DHT22;2811;51.900;10.734;2023-07-16T02:19:48;22.10;99.90
5578;DHT22;2811;51.900;10.734;2023-07-16T02:22:16;22.20;99.90
5578;DHT22;2811;51.900;10.734;2023-07-16T02:24:43;22.10;99.90
5578;DHT22;2811;51.900;10.734;2023-07-16T02:27:10;22.30;99.90
5578;DHT22;2811;51.900;10.734;2023-07-16T02:29:37;22.30;99.90
5578;DHT22;2811;51.900;10.734;2023-07-16T02:32:04;22.30;99.90
5578;DHT22;2811;51.900;10.734;2023-07-16T02:34:31;22.30;99.90
5578;DHT22;2811;51.900;10.734;2023-07-16T02:36:58;22.30;99.90
5578;DHT22;2811;51.900;10.734;2023-07-16T02:39:26;22.30;99.90
5578;DHT22;2811;51.900;10.734;2023-07-16T02:41:53;22.50;99.90
5578;DHT22;2811;51.900;10.734;2023-07-16T02:44:19;22.40;99.90
5578;DHT22;2811;51.900;10.734;2023-07-16T02:46:46;22.30;99.90
5578;DHT22;2811;51.900;10.734;2023-07-16T02:49:13;22.20;99.90
5578;DHT22;2811;51.900;10.734;2023-07-16T02:51:39;22.40;99.90
5578;DHT22;2811;51.900;10.734;2023-07-16T02:54:06;22.40;99.90
5578;DHT22;2811;51.900;10.734;2023-07-16T02:56:34;22.30;99.90
5578;DHT22;2811;51.900;10.734;2023-07-16T02:59:01;22.30;99.90
5578;DHT22;2811;51.900;10.734;2023-07-16T03:01:27;22.50;99.90
5578;DHT22;2811;51.900;10.734;2023-07-16T03:03:54;22.20;99.90
5578;DHT22;2811;51.900;10.734;2023-07-16T03:06:21;22.20;99.90
5578;DHT22;2811;51.900;10.734;2023-07-16T03:08:48;22.30;99.90
5578;DHT22;2811;51.900;10.734;2023-07-16T03:11:14;22.30;99.90
5578;DHT22;2811;51.900;10.734;2023-07-16T03:13:42;22.40;99.90
5578;DHT22;2811;51.900;10.734;2023-07-16T03:16:09;22.40;99.90
5578;DHT22;2811;51.900;10.734;2023-07-16T03:18:36;22.30;99.90
5578;DHT22;2811;51.900;10.734;2023-07-16T03:21:03;22.20;99.90
5578;DHT22;2811;51.900;10.734;2023-07-16T03:23:30;22.20;99.90
5578;DHT22;2811;51.900;10.734;2023-07-16T03:25:56;22.20;99.90
5578;DHT22;2811;51.900;10.734;2023-07-16T03:28:23;22.30;99.90
5578;DHT22;2811;51.900;10.734;2023-07-16T03:30:51;22.30;99.90
5578;DHT22;2811;51.900;10.734;2023-07-16T03:33:19;22.20;99.90
5578;DHT22;2811;51.900;10.734;2023-07-16T03:35:46;22.20;99.90
5578;DHT22;2811;51.900;10.734;2023-07-16T03:38:14;22.00;99.90
5578;DHT22;2811;51.900;10.734;2023-07-16T03:40:42;22.00;99.90
5578;DHT22;2811;51.900;10.734;2023-07-16T03:43:09;22.00;99.90
5578;DHT22;2811;51.900;10.734;2023-07-16T03:45:36;21.90;99.90
5578;DHT22;2811;51.900;10.734;2023-07-16T03:48:04;21.90;99.90
5578;DHT22;2811;51.900;10.734;2023-07-16T03:50:31;21.90;99.90
5578;DHT22;2811;51.900;10.734;2023-07-16T03:52:59;21.80;99.90
5578;DHT22;2811;51.900;10.734;2023-07-16T03:55:25;21.80;99.90
5578;DHT22;2811;51.900;10.734;2023-07-16T03:57:52;21.70;99.90
5578;DHT22;2811;51.900;10.734;2023-07-16T04:00:19;21.70;99.90
5578;DHT22;2811;51.900;10.734;2023-07-16T04:02:45;21.60;99.90
5578;DHT22;2811;51.900;10.734;2023-07-16T04:05:13;21.60;99.90
5578;DHT22;2811;51.900;10.734;2023-07-16T04:07:40;21.30;99.90
5578;DHT22;2811;51.900;10.734;2023-07-16T04:10:07;21.20;99.90
5578;DHT22;2811;51.900;10.734;2023-07-16T04:12:34;21.20;99.90
5578;DHT22;2811;51.900;10.734;2023-07-16T04:15:06;21.20;99.90
5578;DHT22;2811;51.900;10.734;2023-07-16T04:17:33;21.20;99.90
5578;DHT22;2811;51.900;10.734;2023-07-16T04:19:59;21.30;99.90
5578;DHT22;2811;51.900;10.734;2023-07-16T04:22:27;21.30;99.90
5578;DHT22;2811;51.900;10.734;2023-07-16T04:24:54;21.20;99.90
5578;DHT22;2811;51.900;10.734;2023-07-16T04:27:21;21.30;99.90
5578;DHT22;2811;51.900;10.734;2023-07-16T04:29:47;21.40;99.90
5578;DHT22;2811;51.900;10.734;2023-07-16T04:32:14;21.40;99.90
5578;DHT22;2811;51.900;10.734;2023-07-16T04:34:41;21.50;99.90
5578;DHT22;2811;51.900;10.734;2023-07-16T04:37:07;21.70;99.90
5578;DHT22;2811;51.900;10.734;2023-07-16T04:39:35;22.00;99.90
5578;DHT22;2811;51.900;10.734;2023-07-16T04:42:03;22.60;99.90
5578;DHT22;2811;51.900;10.734;2023-07-16T04:44:29;23.00;99.90
5578;DHT22;2811;51.900;10.734;2023-07-16T04:46:56;22.80;99.90
5578;DHT22;2811;51.900;10.734;2023-07-16T04:49:23;22.90;99.90
5578;DHT22;2811;51.900;10.734;2023-07-16T04:51:49;23.00;99.90
5578;DHT22;2811;51.900;10.734;2023-07-16T04:54:16;23.10;99.90
5578;DHT22;2811;51.900;10.734;2023-07-16T04:56:44;23.20;99.90
5578;DHT22;2811;51.900;10.734;2023-07-16T04:59:11;23.50;99.90
5578;DHT22;2811;51.900;10.734;2023-07-16T05:01:38;23.70;99.90
5578;DHT22;2811;51.900;10.734;2023-07-16T05:04:04;23.50;99.90
5578;DHT22;2811;51.900;10.734;2023-07-16T05:06:33;23.10;99.90
5578;DHT22;2811;51.900;10.734;2023-07-16T05:09:00;23.00;99.90
5578;DHT22;2811;51.900;10.734;2023-07-16T05:11:26;23.10;99.90
5578;DHT22;2811;51.900;10.734;2023-07-16T05:13:54;23.00;99.90
5578;DHT22;2811;51.900;10.734;2023-07-16T05:16:22;22.80;99.90
5578;DHT22;2811;51.900;10.734;2023-07-16T05:18:49;22.80;99.90
5578;DHT22;2811;51.900;10.734;2023-07-16T05:21:15;23.10;99.90
5578;DHT22;2811;51.900;10.734;2023-07-16T05:23:42;23.20;99.90
5578;DHT22;2811;51.900;10.734;2023-07-16T05:26:09;23.60;99.90
5578;DHT22;2811;51.900;10.734;2023-07-16T05:28:35;24.00;99.90
5578;DHT22;2811;51.900;10.734;2023-07-16T05:31:04;23.90;99.90
5578;DHT22;2811;51.900;10.734;2023-07-16T05:33:30;24.10;99.90
5578;DHT22;2811;51.900;10.734;2023-07-16T05:35:57;23.60;99.90
5578;DHT22;2811;51.900;10.734;2023-07-16T05:38:24;23.60;99.90
5578;DHT22;2811;51.900;10.734;2023-07-16T05:40:50;23.10;99.90
5578;DHT22;2811;51.900;10.734;2023-07-16T05:43:17;22.90;99.90
5578;DHT22;2811;51.900;10.734;2023-07-16T05:45:44;22.50;99.90
5578;DHT22;2811;51.900;10.734;2023-07-16T05:48:12;22.60;99.90
5578;DHT22;2811;51.900;10.734;2023-07-16T05:50:38;23.10;99.90
5578;DHT22;2811;51.900;10.734;2023-07-16T05:53:05;23.30;99.90
5578;DHT22;2811;51.900;10.734;2023-07-16T05:55:32;23.30;99.90
5578;DHT22;2811;51.900;10.734;2023-07-16T05:57:59;23.40;99.90
5578;DHT22;2811;51.900;10.734;2023-07-16T06:00:25;23.50;99.90
5578;DHT22;2811;51.900;10.734;2023-07-16T06:02:52;23.40;99.90
5578;DHT22;2811;51.900;10.734;2023-07-16T06:05:20;23.50;99.90
5578;DHT22;2811;51.900;10.734;2023-07-16T06:07:47;23.40;99.90
5578;DHT22;2811;51.900;10.734;2023-07-16T06:10:13;23.40;99.90
5578;DHT22;2811;51.900;10.734;2023-07-16T06:12:40;23.20;99.90
5578;DHT22;2811;51.900;10.734;2023-07-16T06:15:07;23.00;99.90
5578;DHT22;2811;51.900;10.734;2023-07-16T06:17:34;22.80;99.90
5578;DHT22;2811;51.900;10.734;2023-07-16T06:20:02;22.60;99.90
5578;DHT22;2811;51.900;10.734;2023-07-16T06:22:30;22.90;99.90
5578;DHT22;2811;51.900;10.734;2023-07-16T06:24:56;23.30;99.90
5578;DHT22;2811;51.900;10.734;2023-07-16T06:27:23;23.50;99.90
5578;DHT22;2811;51.900;10.734;2023-07-16T06:29:50;23.70;99.90
5578;DHT22;2811;51.900;10.734;2023-07-16T06:32:17;23.20;99.90
5578;DHT22;2811;51.900;10.734;2023-07-16T06:34:43;23.30;99.90
5578;DHT22;2811;51.900;10.734;2023-07-16T06:37:10;23.50;99.90
5578;DHT22;2811;51.900;10.734;2023-07-16T06:39:38;23.20;99.90
5578;DHT22;2811;51.900;10.734;2023-07-16T06:42:05;23.30;99.90
5578;DHT22;2811;51.900;10.734;2023-07-16T06:44:32;23.40;99.90
5578;DHT22;2811;51.900;10.734;2023-07-16T06:46:58;23.60;99.90
5578;DHT22;2811;51.900;10.734;2023-07-16T06:49:25;23.60;99.90
5578;DHT22;2811;51.900;10.734;2023-07-16T06:51:52;23.90;99.90
5578;DHT22;2811;51.900;10.734;2023-07-16T06:54:18;24.00;99.90
5578;DHT22;2811;51.900;10.734;2023-07-16T06:56:46;24.40;99.90
5578;DHT22;2811;51.900;10.734;2023-07-16T06:59:13;24.60;99.90
5578;DHT22;2811;51.900;10.734;2023-07-16T07:01:40;24.60;99.90
5578;DHT22;2811;51.900;10.734;2023-07-16T07:04:06;24.50;99.90
5578;DHT22;2811;51.900;10.734;2023-07-16T07:06:33;24.50;99.90
5578;DHT22;2811;51.900;10.734;2023-07-16T07:09:00;24.60;99.50
5578;DHT22;2811;51.900;10.734;2023-07-16T07:11:26;24.60;99.90
5578;DHT22;2811;51.900;10.734;2023-07-16T07:13:55;24.40;99.90
5578;DHT22;2811;51.900;10.734;2023-07-16T07:16:22;24.20;99.90
5578;DHT22;2811;51.900;10.734;2023-07-16T07:18:49;24.00;99.90
5578;DHT22;2811;51.900;10.734;2023-07-16T07:21:16;24.10;99.90
5578;DHT22;2811;51.900;10.734;2023-07-16T07:23:42;24.30;99.30
5578;DHT22;2811;51.900;10.734;2023-07-16T07:26:09;24.70;99.30
5578;DHT22;2811;51.900;10.734;2023-07-16T07:28:36;24.60;99.00
5578;DHT22;2811;51.900;10.734;2023-07-16T07:31:04;24.10;99.40
5578;DHT22;2811;51.900;10.734;2023-07-16T07:33:31;23.80;98.60
5578;DHT22;2811;51.900;10.734;2023-07-16T07:35:58;24.00;97.80
5578;DHT22;2811;51.900;10.734;2023-07-16T07:38:25;24.00;98.00
5578;DHT22;2811;51.900;10.734;2023-07-16T07:40:51;24.20;97.60
5578;DHT22;2811;51.900;10.734;2023-07-16T07:43:18;24.50;97.70
5578;DHT22;2811;51.900;10.734;2023-07-16T07:45:45;24.40;96.60
5578;DHT22;2811;51.900;10.734;2023-07-16T07:48:13;24.00;96.90
5578;DHT22;2811;51.900;10.734;2023-07-16T07:50:39;24.10;97.00
5578;DHT22;2811;51.900;10.734;2023-07-16T07:53:06;24.00;96.90
5578;DHT22;2811;51.900;10.734;2023-07-16T07:55:33;24.40;96.80
5578;DHT22;2811;51.900;10.734;2023-07-16T07:58:00;24.70;96.20
5578;DHT22;2811;51.900;10.734;2023-07-16T08:00:27;24.90;96.30
5578;DHT22;2811;51.900;10.734;2023-07-16T08:02:54;24.60;96.00
5578;DHT22;2811;51.900;10.734;2023-07-16T08:05:22;24.60;96.40
5578;DHT22;2811;51.900;10.734;2023-07-16T08:07:49;24.90;96.20
5578;DHT22;2811;51.900;10.734;2023-07-16T08:10:16;24.60;96.90
5578;DHT22;2811;51.900;10.734;2023-07-16T08:12:43;24.30;95.50
5578;DHT22;2811;51.900;10.734;2023-07-16T08:15:10;24.30;96.00
5578;DHT22;2811;51.900;10.734;2023-07-16T08:17:39;23.80;95.70
5578;DHT22;2811;51.900;10.734;2023-07-16T08:20:07;23.90;95.90
5578;DHT22;2811;51.900;10.734;2023-07-16T08:22:35;24.40;95.60
5578;DHT22;2811;51.900;10.734;2023-07-16T08:25:02;24.00;95.90
5578;DHT22;2811;51.900;10.734;2023-07-16T08:27:29;24.20;95.30
5578;DHT22;2811;51.900;10.734;2023-07-16T08:29:56;24.30;95.10
5578;DHT22;2811;51.900;10.734;2023-07-16T08:32:23;24.20;95.70
5578;DHT22;2811;51.900;10.734;2023-07-16T08:34:50;24.70;94.70
5578;DHT22;2811;51.900;10.734;2023-07-16T08:37:16;24.60;94.50
5578;DHT22;2811;51.900;10.734;2023-07-16T08:39:44;24.20;95.20
5578;DHT22;2811;51.900;10.734;2023-07-16T08:42:11;24.40;95.20
5578;DHT22;2811;51.900;10.734;2023-07-16T08:44:39;24.70;94.80
5578;DHT22;2811;51.900;10.734;2023-07-16T08:47:06;24.60;93.30
5578;DHT22;2811;51.900;10.734;2023-07-16T08:49:34;24.30;93.50
5578;DHT22;2811;51.900;10.734;2023-07-16T08:52:02;24.70;94.40
5578;DHT22;2811;51.900;10.734;2023-07-16T08:54:28;24.70;93.90
5578;DHT22;2811;51.900;10.734;2023-07-16T08:56:57;24.60;94.20
5578;DHT22;2811;51.900;10.734;2023-07-16T08:59:25;24.70;92.30
5578;DHT22;2811;51.900;10.734;2023-07-16T09:01:52;25.00;93.30
5578;DHT22;2811;51.900;10.734;2023-07-16T09:04:19;25.20;92.30
5578;DHT22;2811;51.900;10.734;2023-07-16T09:06:46;25.40;92.30
5578;DHT22;2811;51.900;10.734;2023-07-16T09:09:19;25.30;92.20
5578;DHT22;2811;51.900;10.734;2023-07-16T09:11:46;24.90;91.60
5578;DHT22;2811;51.900;10.734;2023-07-16T09:14:16;24.90;92.30
5578;DHT22;2811;51.900;10.734;2023-07-16T09:16:47;25.30;92.90
5578;DHT22;2811;51.900;10.734;2023-07-16T09:19:14;25.70;92.00
5578;DHT22;2811;51.900;10.734;2023-07-16T09:21:46;25.40;91.80
5578;DHT22;2811;51.900;10.734;2023-07-16T09:24:12;25.60;91.70
5578;DHT22;2811;51.900;10.734;2023-07-16T09:26:46;25.70;91.10
5578;DHT22;2811;51.900;10.734;2023-07-16T09:29:13;25.80;91.20
5578;DHT22;2811;51.900;10.734;2023-07-16T09:31:55;26.10;91.30
5578;DHT22;2811;51.900;10.734;2023-07-16T09:34:22;25.90;90.40
5578;DHT22;2811;51.900;10.734;2023-07-16T09:36:49;26.10;89.80
5578;DHT22;2811;51.900;10.734;2023-07-16T09:39:17;26.30;90.00
5578;DHT22;2811;51.900;10.734;2023-07-16T09:41:45;26.60;89.60
5578;DHT22;2811;51.900;10.734;2023-07-16T09:44:12;26.60;89.20
5578;DHT22;2811;51.900;10.734;2023-07-16T09:46:39;26.50;90.00
5578;DHT22;2811;51.900;10.734;2023-07-16T09:49:08;26.60;90.50
5578;DHT22;2811;51.900;10.734;2023-07-16T09:51:35;26.60;89.80
5578;DHT22;2811;51.900;10.734;2023-07-16T09:54:03;26.70;90.30
5578;DHT22;2811;51.900;10.734;2023-07-16T09:56:33;26.70;88.50
5578;DHT22;2811;51.900;10.734;2023-07-16T09:59:01;26.90;87.60
5578;DHT22;2811;51.900;10.734;2023-07-16T10:01:29;27.00;85.20
5578;DHT22;2811;51.900;10.734;2023-07-16T10:03:56;26.80;85.80
5578;DHT22;2811;51.900;10.734;2023-07-16T10:06:24;26.70;85.40
5578;DHT22;2811;51.900;10.734;2023-07-16T10:08:51;26.10;85.20
5578;DHT22;2811;51.900;10.734;2023-07-16T10:11:18;25.90;88.10
5578;DHT22;2811;51.900;10.734;2023-07-16T10:13:49;25.70;88.40
5578;DHT22;2811;51.900;10.734;2023-07-16T10:16:20;25.70;88.70
5578;DHT22;2811;51.900;10.734;2023-07-16T10:18:51;25.80;87.70
5578;DHT22;2811;51.900;10.734;2023-07-16T10:21:24;26.30;87.80
5578;DHT22;2811;51.900;10.734;2023-07-16T10:23:57;26.30;87.30
5578;DHT22;2811;51.900;10.734;2023-07-16T10:26:27;26.70;84.80
5578;DHT22;2811;51.900;10.734;2023-07-16T10:28:55;25.90;83.70
5578;DHT22;2811;51.900;10.734;2023-07-16T10:31:23;25.70;82.60
5578;DHT22;2811;51.900;10.734;2023-07-16T10:34:00;26.00;83.60
5578;DHT22;2811;51.900;10.734;2023-07-16T10:36:29;25.90;83.00
5578;DHT22;2811;51.900;10.734;2023-07-16T10:39:02;26.30;84.00
5578;DHT22;2811;51.900;10.734;2023-07-16T10:41:29;26.40;85.30
5578;DHT22;2811;51.900;10.734;2023-07-16T10:43:56;26.40;84.70
5578;DHT22;2811;51.900;10.734;2023-07-16T10:46:24;26.30;83.80
5578;DHT22;2811;51.900;10.734;2023-07-16T10:48:50;26.60;85.50
5578;DHT22;2811;51.900;10.734;2023-07-16T10:51:17;26.70;81.60
5578;DHT22;2811;51.900;10.734;2023-07-16T10:53:45;26.70;79.20
5578;DHT22;2811;51.900;10.734;2023-07-16T10:56:12;26.60;81.10
5578;DHT22;2811;51.900;10.734;2023-07-16T10:58:39;26.30;82.30
5578;DHT22;2811;51.900;10.734;2023-07-16T11:01:08;26.00;84.00
5578;DHT22;2811;51.900;10.734;2023-07-16T11:03:35;25.70;84.70
5578;DHT22;2811;51.900;10.734;2023-07-16T11:06:06;25.90;86.20
5578;DHT22;2811;51.900;10.734;2023-07-16T11:08:32;26.00;86.40
5578;DHT22;2811;51.900;10.734;2023-07-16T11:11:00;26.30;85.10
5578;DHT22;2811;51.900;10.734;2023-07-16T11:13:28;26.30;84.60
5578;DHT22;2811;51.900;10.734;2023-07-16T11:15:55;26.20;84.00
5578;DHT22;2811;51.900;10.734;2023-07-16T11:18:22;26.40;83.90
5578;DHT22;2811;51.900;10.734;2023-07-16T11:20:50;26.30;82.40
5578;DHT22;2811;51.900;10.734;2023-07-16T11:23:17;26.80;82.60
5578;DHT22;2811;51.900;10.734;2023-07-16T11:25:46;26.70;81.70
5578;DHT22;2811;51.900;10.734;2023-07-16T11:28:14;26.40;85.80
5578;DHT22;2811;51.900;10.734;2023-07-16T11:30:41;26.30;83.90
5578;DHT22;2811;51.900;10.734;2023-07-16T11:33:10;26.70;84.00
5578;DHT22;2811;51.900;10.734;2023-07-16T11:35:37;26.90;83.40
5578;DHT22;2811;51.900;10.734;2023-07-16T11:38:04;27.20;82.20
5578;DHT22;2811;51.900;10.734;2023-07-16T11:40:33;26.80;81.10
5578;DHT22;2811;51.900;10.734;2023-07-16T11:43:07;27.00;83.00
5578;DHT22;2811;51.900;10.734;2023-07-16T11:45:36;27.20;82.20
5578;DHT22;2811;51.900;10.734;2023-07-16T11:48:03;26.80;81.80
5578;DHT22;2811;51.900;10.734;2023-07-16T11:50:30;27.00;83.80
5578;DHT22;2811;51.900;10.734;2023-07-16T11:53:00;27.10;82.60
5578;DHT22;2811;51.900;10.734;2023-07-16T11:55:27;27.40;84.00
5578;DHT22;2811;51.900;10.734;2023-07-16T11:57:54;27.70;82.30
5578;DHT22;2811;51.900;10.734;2023-07-16T12:00:22;27.50;81.10
5578;DHT22;2811;51.900;10.734;2023-07-16T12:02:50;27.60;80.80
5578;DHT22;2811;51.900;10.734;2023-07-16T12:05:17;27.80;81.20
5578;DHT22;2811;51.900;10.734;2023-07-16T12:07:44;27.10;81.20
5578;DHT22;2811;51.900;10.734;2023-07-16T12:10:11;26.90;82.50
5578;DHT22;2811;51.900;10.734;2023-07-16T12:12:37;26.80;85.10
5578;DHT22;2811;51.900;10.734;2023-07-16T12:15:05;27.10;84.10
5578;DHT22;2811;51.900;10.734;2023-07-16T12:17:32;27.30;81.70
5578;DHT22;2811;51.900;10.734;2023-07-16T12:20:00;26.80;81.10
5578;DHT22;2811;51.900;10.734;2023-07-16T12:22:27;26.70;81.50
5578;DHT22;2811;51.900;10.734;2023-07-16T12:24:54;26.10;82.40
5578;DHT22;2811;51.900;10.734;2023-07-16T12:27:21;26.40;83.70
5578;DHT22;2811;51.900;10.734;2023-07-16T12:29:47;26.40;82.50
5578;DHT22;2811;51.900;10.734;2023-07-16T12:32:14;27.00;81.60
5578;DHT22;2811;51.900;10.734;2023-07-16T12:34:41;27.30;81.00
5578;DHT22;2811;51.900;10.734;2023-07-16T12:37:09;27.50;80.40
5578;DHT22;2811;51.900;10.734;2023-07-16T12:39:36;26.90;80.30
5578;DHT22;2811;51.900;10.734;2023-07-16T12:42:03;27.00;82.00
5578;DHT22;2811;51.900;10.734;2023-07-16T12:44:30;26.70;80.10
5578;DHT22;2811;51.900;10.734;2023-07-16T12:46:56;26.70;80.80
5578;DHT22;2811;51.900;10.734;2023-07-16T12:49:23;26.30;81.10
5578;DHT22;2811;51.900;10.734;2023-07-16T12:51:50;26.30;81.50
5578;DHT22;2811;51.900;10.734;2023-07-16T12:54:18;26.30;82.60
5578;DHT22;2811;51.900;10.734;2023-07-16T12:56:44;26.50;83.20
5578;DHT22;2811;51.900;10.734;2023-07-16T12:59:11;27.00;82.50
5578;DHT22;2811;51.900;10.734;2023-07-16T13:01:38;26.90;79.90
5578;DHT22;2811;51.900;10.734;2023-07-16T13:04:04;26.80;79.80
5578;DHT22;2811;51.900;10.734;2023-07-16T13:06:31;27.30;82.00
5578;DHT22;2811;51.900;10.734;2023-07-16T13:08:58;27.40;79.60
5578;DHT22;2811;51.900;10.734;2023-07-16T13:11:26;27.70;79.90
5578;DHT22;2811;51.900;10.734;2023-07-16T13:13:52;27.20;78.90
5578;DHT22;2811;51.900;10.734;2023-07-16T13:16:19;26.60;78.80
5578;DHT22;2811;51.900;10.734;2023-07-16T13:18:46;26.70;80.60
5578;DHT22;2811;51.900;10.734;2023-07-16T13:21:12;27.10;79.50
5578;DHT22;2811;51.900;10.734;2023-07-16T13:23:39;27.30;78.20
5578;DHT22;2811;51.900;10.734;2023-07-16T13:26:06;27.30;79.10
5578;DHT22;2811;51.900;10.734;2023-07-16T13:28:34;27.20;77.00
5578;DHT22;2811;51.900;10.734;2023-07-16T13:31:01;27.20;79.50
5578;DHT22;2811;51.900;10.734;2023-07-16T13:33:27;27.50;78.20
5578;DHT22;2811;51.900;10.734;2023-07-16T13:35:54;27.80;76.10
5578;DHT22;2811;51.900;10.734;2023-07-16T13:38:22;27.90;74.20
5578;DHT22;2811;51.900;10.734;2023-07-16T13:40:49;27.40;74.50
5578;DHT22;2811;51.900;10.734;2023-07-16T13:43:15;27.90;74.60
5578;DHT22;2811;51.900;10.734;2023-07-16T13:45:43;28.40;75.10
5578;DHT22;2811;51.900;10.734;2023-07-16T13:48:10;28.60;73.30
5578;DHT22;2811;51.900;10.734;2023-07-16T13:50:37;28.70;72.40
5578;DHT22;2811;51.900;10.734;2023-07-16T13:53:03;28.60;73.60
5578;DHT22;2811;51.900;10.734;2023-07-16T13:55:30;28.70;71.80
5578;DHT22;2811;51.900;10.734;2023-07-16T13:57:57;28.70;70.30
5578;DHT22;2811;51.900;10.734;2023-07-16T14:00:23;28.60;72.30
5578;DHT22;2811;51.900;10.734;2023-07-16T14:02:52;28.20;71.30
5578;DHT22;2811;51.900;10.734;2023-07-16T14:05:18;28.10;71.30
5578;DHT22;2811;51.900;10.734;2023-07-16T14:07:46;28.30;73.10
5578;DHT22;2811;51.900;10.734;2023-07-16T14:10:13;27.90;73.10
5578;DHT22;2811;51.900;10.734;2023-07-16T14:12:39;28.30;74.50
5578;DHT22;2811;51.900;10.734;2023-07-16T14:15:07;28.50;72.50
5578;DHT22;2811;51.900;10.734;2023-07-16T14:17:33;28.30;71.30
5578;DHT22;2811;51.900;10.734;2023-07-16T14:20:02;27.40;72.20
5578;DHT22;2811;51.900;10.734;2023-07-16T14:22:29;27.30;73.60
5578;DHT22;2811;51.900;10.734;2023-07-16T14:24:55;27.20;73.30
5578;DHT22;2811;51.900;10.734;2023-07-16T14:27:22;27.60;74.60
5578;DHT22;2811;51.900;10.734;2023-07-16T14:29:49;28.00;73.90
5578;DHT22;2811;51.900;10.734;2023-07-16T14:32:15;28.30;72.20
5578;DHT22;2811;51.900;10.734;2023-07-16T14:34:42;28.40;71.40
5578;DHT22;2811;51.900;10.734;2023-07-16T14:37:10;28.40;70.10
5578;DHT22;2811;51.900;10.734;2023-07-16T14:39:38;28.30;70.50
5578;DHT22;2811;51.900;10.734;2023-07-16T14:42:04;28.40;71.60
5578;DHT22;2811;51.900;10.734;2023-07-16T14:44:32;28.40;70.90
5578;DHT22;2811;51.900;10.734;2023-07-16T14:46:59;28.00;72.20
5578;DHT22;2811;51.900;10.734;2023-07-16T14:49:25;28.00;71.90
5578;DHT22;2811;51.900;10.734;2023-07-16T14:51:52;27.80;71.40
5578;DHT22;2811;51.900;10.734;2023-07-16T14:54:22;27.70;71.10
5578;DHT22;2811;51.900;10.734;2023-07-16T14:56:48;27.70;71.60
5578;DHT22;2811;51.900;10.734;2023-07-16T14:59:15;27.70;71.60
5578;DHT22;2811;51.900;10.734;2023-07-16T15:01:43;27.90;71.90
5578;DHT22;2811;51.900;10.734;2023-07-16T15:04:09;27.80;71.80
5578;DHT22;2811;51.900;10.734;2023-07-16T15:06:36;27.80;71.50
5578;DHT22;2811;51.900;10.734;2023-07-16T15:09:03;27.70;70.80
5578;DHT22;2811;51.900;10.734;2023-07-16T15:11:31;27.60;72.00
5578;DHT22;2811;51.900;10.734;2023-07-16T15:13:59;27.50;71.70
5578;DHT22;2811;51.900;10.734;2023-07-16T15:16:26;27.50;72.10
5578;DHT22;2811;51.900;10.734;2023-07-16T15:18:53;27.50;72.40
5578;DHT22;2811;51.900;10.734;2023-07-16T15:21:20;27.80;72.00
5578;DHT22;2811;51.900;10.734;2023-07-16T15:23:46;27.80;71.70
5578;DHT22;2811;51.900;10.734;2023-07-16T15:26:13;27.80;71.00
5578;DHT22;2811;51.900;10.734;2023-07-16T15:28:41;27.60;71.00
5578;DHT22;2811;51.900;10.734;2023-07-16T15:31:10;27.20;69.80
5578;DHT22;2811;51.900;10.734;2023-07-16T15:33:38;26.90;71.00
5578;DHT22;2811;51.900;10.734;2023-07-16T15:36:05;27.20;70.80
5578;DHT22;2811;51.900;10.734;2023-07-16T15:38:32;27.00;70.30
5578;DHT22;2811;51.900;10.734;2023-07-16T15:40:58;27.30;70.00
5578;DHT22;2811;51.900;10.734;2023-07-16T15:43:25;27.60;70.40
5578;DHT22;2811;51.900;10.734;2023-07-16T15:45:53;28.50;69.10